createdAt,value
2023-04-18T00:00:37.965Z,2.50
2023-04-18T00:03:40.567Z,2.45
2023-04-18T00:06:42.982Z,2.78
2023-04-18T00:09:45.622Z,2.67
2023-04-18T00:12:48.065Z,2.72
2023-04-18T00:15:50.377Z,2.78
2023-04-18T00:18:53.795Z,2.75
2023-04-18T00:21:58.484Z,2.78
2023-04-18T00:25:00.923Z,2.83
2023-04-18T00:28:03.186Z,3.22
2023-04-18T00:31:05.574Z,2.88
2023-04-18T00:34:07.890Z,3.10
2023-04-18T00:37:10.234Z,3.00
2023-04-18T00:40:12.579Z,2.70
2023-04-18T00:43:15.133Z,3.08
2023-04-18T00:46:17.720Z,2.97
2023-04-18T00:49:20.555Z,2.97
2023-04-18T00:52:26.076Z,2.83
2023-04-18T00:55:29.092Z,3.10
2023-04-18T00:58:32.222Z,3.25
2023-04-18T01:01:34.520Z,3.03
2023-04-18T01:04:37.395Z,3.15
2023-04-18T01:10:45.137Z,2.70
2023-04-18T01:14:05.137Z,3.00
2023-04-18T01:17:10.927Z,3.20
2023-04-18T01:20:13.816Z,3.22
2023-04-18T01:23:18.113Z,2.97
2023-04-18T01:26:20.481Z,3.08
2023-04-18T01:29:23.040Z,3.17
2023-04-18T01:32:25.397Z,2.75
2023-04-18T01:35:28.575Z,3.28
2023-04-18T01:38:33.200Z,2.90
2023-04-18T01:41:36.617Z,2.90
2023-04-18T01:44:38.869Z,3.42
2023-04-18T01:47:41.201Z,2.83
2023-04-18T01:50:47.042Z,3.00
2023-04-18T01:53:49.953Z,2.83
2023-04-18T02:02:59.111Z,3.00
2023-04-18T02:06:02.722Z,3.50
2023-04-18T02:09:05.324Z,3.30
2023-04-18T02:12:07.709Z,3.35
2023-04-18T02:15:10.683Z,3.60
2023-04-18T02:18:13.046Z,3.80
2023-04-18T02:21:15.378Z,3.35
2023-04-18T02:24:17.927Z,3.58
2023-04-18T02:27:20.214Z,3.50
2023-04-18T02:30:23.361Z,3.22
2023-04-18T02:33:25.666Z,3.30
2023-04-18T02:36:28.469Z,3.70
2023-04-18T02:39:31.609Z,3.28
2023-04-18T02:42:33.933Z,3.35
2023-04-18T02:45:37.294Z,3.40
2023-04-18T02:51:43.643Z,4.63
2023-04-18T02:54:46.657Z,5.35
2023-04-18T02:57:53.247Z,4.57
2023-04-18T03:01:27.345Z,3.92
2023-04-18T03:04:49.912Z,4.28
2023-04-18T03:07:52.214Z,3.42
2023-04-18T03:10:56.381Z,6.00
2023-04-18T03:14:00.497Z,5.90
2023-04-18T03:20:15.711Z,4.65
2023-04-18T03:23:18.059Z,7.70
2023-04-18T03:26:21.432Z,4.70
2023-04-18T03:29:23.661Z,4.65
2023-04-18T03:32:27.064Z,3.88
2023-04-18T03:35:29.461Z,4.88
2023-04-18T03:38:32.091Z,4.13
2023-04-18T03:41:34.378Z,4.97
2023-04-18T03:44:37.053Z,5.68
2023-04-18T03:47:40.024Z,9.45
2023-04-18T03:50:42.583Z,5.65
2023-04-18T03:53:46.051Z,4.47
2023-04-18T03:56:48.360Z,5.07
2023-04-18T03:59:51.187Z,4.72
2023-04-18T04:02:54.020Z,5.40
2023-04-18T04:08:59.102Z,5.05
2023-04-18T04:12:03.915Z,4.72
2023-04-18T04:15:06.884Z,4.95
2023-04-18T04:18:10.148Z,5.18
2023-04-18T04:21:15.912Z,5.07
2023-04-18T04:24:23.488Z,5.20
2023-04-18T04:27:27.055Z,5.03
2023-04-18T04:30:31.817Z,5.05
2023-04-18T04:33:35.801Z,5.18
2023-04-18T04:36:43.154Z,4.82
2023-04-18T04:39:47.886Z,6.65
2023-04-18T04:43:22.526Z,5.43
2023-04-18T04:46:25.137Z,5.30
2023-04-18T04:49:27.478Z,5.10
2023-04-18T04:52:29.772Z,5.03
2023-04-18T04:55:32.875Z,4.60
2023-04-18T04:58:36.720Z,4.70
2023-04-18T05:01:57.435Z,4.90
2023-04-18T05:04:59.816Z,5.10
2023-04-18T05:08:02.582Z,5.32
2023-04-18T05:11:04.985Z,5.72
2023-04-18T05:14:07.596Z,5.50
2023-04-18T05:17:09.892Z,5.43
2023-04-18T05:20:12.299Z,5.20
2023-04-18T05:23:14.575Z,5.30
2023-04-18T05:26:17.548Z,5.72
2023-04-18T05:29:19.876Z,5.45
2023-04-18T05:32:22.325Z,5.57
2023-04-18T05:35:24.623Z,5.60
2023-04-18T05:38:26.928Z,5.68
2023-04-18T05:41:29.159Z,5.10
2023-04-18T05:44:31.411Z,5.05
2023-04-18T05:47:33.855Z,5.13
2023-04-18T05:50:36.178Z,5.68
2023-04-18T05:53:38.519Z,5.55
2023-04-18T05:56:41.065Z,5.80
2023-04-18T05:59:43.610Z,5.82
2023-04-18T06:02:46.349Z,5.70
2023-04-18T06:08:52.187Z,4.72
2023-04-18T06:11:54.460Z,4.63
2023-04-18T06:14:56.754Z,4.70
2023-04-18T06:17:59.148Z,5.03
2023-04-18T06:21:01.554Z,4.93
2023-04-18T06:24:03.999Z,4.70
2023-04-18T06:27:09.319Z,4.75
2023-04-18T06:30:15.138Z,4.72
2023-04-18T06:33:17.367Z,4.32
2023-04-18T06:36:19.956Z,5.72
2023-04-18T06:39:22.221Z,4.93
2023-04-18T06:42:24.633Z,4.32
2023-04-18T06:45:32.995Z,4.32
2023-04-18T06:48:35.315Z,4.03
2023-04-18T06:51:37.659Z,3.70
2023-04-18T06:54:39.964Z,3.65
2023-04-18T06:57:42.807Z,3.58
2023-04-18T07:00:47.652Z,3.70
2023-04-18T07:03:50.015Z,4.35
2023-04-18T07:06:52.835Z,4.50
2023-04-18T07:12:57.322Z,3.90
2023-04-18T07:15:59.619Z,3.85
2023-04-18T07:19:01.869Z,3.65
2023-04-18T07:22:04.159Z,4.20
2023-04-18T07:25:06.945Z,3.88
2023-04-18T07:31:11.491Z,3.60
2023-04-18T07:34:14.562Z,3.80
2023-04-18T07:37:18.410Z,3.80
2023-04-18T07:40:21.247Z,3.78
2023-04-18T07:46:25.813Z,3.35
2023-04-18T07:49:28.099Z,2.92
2023-04-18T07:52:30.340Z,3.25
2023-04-18T07:55:32.567Z,3.13
2023-04-18T07:58:35.169Z,3.10
2023-04-18T08:01:37.464Z,3.13
2023-04-18T08:04:40.062Z,3.30
2023-04-18T08:07:42.486Z,3.50
2023-04-18T08:10:44.950Z,6.15
2023-04-18T08:13:47.254Z,4.38
2023-04-18T08:16:49.678Z,3.40
2023-04-18T08:19:52.084Z,2.65
2023-04-18T08:23:06.008Z,2.85
2023-04-18T08:26:11.284Z,2.88
2023-04-18T08:29:13.772Z,2.80
2023-04-18T08:32:16.140Z,2.83
2023-04-18T08:35:18.434Z,2.80
2023-04-18T08:38:20.716Z,2.58
2023-04-18T08:41:24.155Z,2.70
2023-04-18T08:44:29.733Z,2.65
2023-04-18T08:47:32.064Z,2.70
2023-04-18T08:50:34.297Z,2.53
2023-04-18T08:53:36.616Z,2.40
2023-04-18T08:56:38.908Z,2.70
2023-04-18T08:59:43.131Z,2.78
2023-04-18T09:02:46.951Z,3.00
2023-04-18T09:06:08.415Z,2.85
2023-04-18T09:09:10.722Z,2.50
2023-04-18T09:12:14.969Z,1.70
2023-04-18T09:15:20.502Z,2.05
2023-04-18T09:18:25.147Z,1.90
2023-04-18T09:21:28.025Z,1.80
2023-04-18T09:24:31.973Z,2.03
2023-04-18T09:27:34.954Z,2.13
2023-04-18T09:30:40.161Z,2.00
2023-04-18T09:33:54.186Z,2.00
2023-04-18T09:37:10.153Z,1.67
2023-04-18T09:40:19.643Z,2.20
2023-04-18T09:43:22.042Z,1.73
2023-04-18T09:46:24.403Z,2.10
2023-04-18T09:49:27.252Z,2.10
2023-04-18T09:55:35.202Z,2.42
2023-04-18T09:58:41.281Z,2.55
2023-04-18T10:01:47.917Z,2.78
2023-04-18T10:04:53.553Z,2.40
2023-04-18T10:07:56.185Z,3.78
2023-04-18T10:10:58.766Z,2.60
2023-04-18T10:14:07.235Z,2.65
2023-04-18T10:17:10.251Z,2.60
2023-04-18T10:20:18.022Z,2.28
2023-04-18T10:23:34.554Z,2.58
2023-04-18T10:26:47.198Z,2.40
2023-04-18T10:29:53.916Z,3.00
2023-04-18T10:32:56.204Z,2.55
2023-04-18T10:36:01.489Z,2.72
2023-04-18T10:39:23.342Z,2.60
2023-04-18T10:42:47.077Z,1.92
2023-04-18T10:46:23.791Z,1.98
2023-04-18T10:49:34.124Z,1.92
2023-04-18T10:52:36.467Z,2.05
2023-04-18T10:55:43.289Z,2.10
2023-04-18T10:58:51.130Z,2.10
2023-04-18T11:02:22.995Z,1.98
2023-04-18T11:05:29.245Z,1.90
2023-04-18T11:08:31.536Z,1.85
2023-04-18T11:11:33.848Z,1.85
2023-04-18T11:14:48.785Z,1.50
2023-04-18T11:18:01.274Z,1.75
2023-04-18T11:21:03.860Z,1.70
2023-04-18T11:24:06.408Z,2.00
2023-04-18T11:27:09.848Z,2.00
2023-04-18T11:30:13.243Z,1.70
2023-04-18T11:33:16.716Z,1.98
2023-04-18T11:36:19.212Z,1.60
2023-04-18T11:39:22.238Z,1.60
2023-04-18T11:42:28.588Z,1.90
2023-04-18T11:45:31.256Z,2.25
2023-04-18T11:48:36.791Z,1.95
2023-04-18T11:51:39.184Z,1.90
2023-04-18T11:54:43.014Z,1.98
2023-04-18T11:57:58.570Z,1.60
2023-04-18T12:01:18.894Z,1.60
2023-04-18T12:04:21.541Z,2.30
2023-04-18T12:07:44.402Z,1.90
2023-04-18T12:10:54.051Z,1.83
2023-04-18T12:13:56.899Z,2.00
2023-04-18T12:16:59.217Z,2.05
2023-04-18T12:20:03.736Z,2.28
2023-04-18T12:23:06.555Z,1.90
2023-04-18T12:26:11.382Z,1.88
2023-04-18T12:29:13.934Z,2.50
2023-04-18T12:35:20.842Z,2.60
2023-04-18T12:38:23.653Z,2.25
2023-04-18T12:41:25.976Z,1.80
2023-04-18T12:44:28.515Z,1.88
2023-04-18T12:47:31.145Z,2.38
2023-04-18T12:50:33.548Z,2.10
2023-04-18T12:53:35.782Z,2.30
2023-04-18T12:56:38.018Z,2.15
2023-04-18T12:59:40.350Z,2.22
2023-04-18T13:02:44.290Z,1.98
2023-04-18T13:05:46.661Z,2.60
2023-04-18T13:08:48.926Z,2.22
2023-04-18T13:11:51.135Z,3.08
2023-04-18T13:14:53.352Z,1.70
2023-04-18T13:18:04.361Z,4.07
2023-04-18T13:21:06.840Z,3.42
2023-04-18T13:24:09.120Z,2.20
2023-04-18T13:27:11.976Z,2.70
2023-04-18T13:33:16.999Z,1.77
2023-04-18T13:39:22.818Z,2.00
2023-04-18T13:42:25.069Z,2.10
2023-04-18T13:45:27.459Z,1.85
2023-04-18T13:48:29.756Z,2.00
2023-04-18T13:51:32.118Z,7.13
2023-04-18T13:54:34.600Z,2.25
2023-04-18T13:57:37.367Z,1.88
2023-04-18T14:03:43.671Z,1.85
2023-04-18T14:06:48.460Z,1.70
2023-04-18T14:09:53.310Z,1.80
2023-04-18T14:12:56.242Z,2.17
2023-04-18T14:15:58.900Z,2.03
2023-04-18T14:22:03.831Z,2.17
2023-04-18T14:25:06.775Z,2.35
2023-04-18T14:28:11.252Z,1.80
2023-04-18T14:31:14.392Z,2.83
2023-04-18T14:34:16.632Z,2.42
2023-04-18T14:37:18.907Z,1.80
2023-04-18T14:40:22.569Z,2.20
2023-04-18T14:43:25.701Z,1.85
2023-04-18T14:46:28.379Z,2.00
2023-04-18T14:49:30.860Z,2.80
2023-04-18T14:52:33.100Z,2.15
2023-04-18T14:55:35.454Z,2.00
2023-04-18T14:58:37.761Z,2.10
2023-04-18T15:01:41.614Z,2.00
2023-04-18T15:04:44.063Z,2.08
2023-04-18T15:07:47.714Z,2.45
2023-04-18T15:10:52.809Z,2.60
2023-04-18T15:13:55.072Z,2.20
2023-04-18T15:16:57.746Z,1.80
2023-04-18T15:20:00.190Z,1.92
2023-04-18T15:23:03.090Z,1.92
2023-04-18T15:26:05.413Z,1.85
2023-04-18T15:29:07.976Z,2.20
2023-04-18T15:32:10.299Z,1.80
2023-04-18T15:35:12.942Z,1.92
2023-04-18T15:38:15.189Z,2.03
2023-04-18T15:41:17.410Z,2.22
2023-04-18T15:44:19.647Z,2.10
2023-04-18T15:47:21.970Z,2.33
2023-04-18T15:50:24.435Z,2.13
2023-04-18T15:53:26.979Z,2.30
2023-04-18T15:56:32.466Z,2.30
2023-04-18T15:59:36.224Z,2.40
2023-04-18T16:02:38.669Z,2.00
2023-04-18T16:05:41.473Z,2.33
2023-04-18T16:08:43.756Z,2.38
2023-04-18T16:11:46.050Z,2.08
2023-04-18T16:14:48.312Z,2.30
2023-04-18T16:17:50.670Z,2.30
2023-04-18T16:20:52.947Z,2.72
2023-04-18T16:23:55.431Z,2.30
2023-04-18T16:26:58.558Z,2.50
2023-04-18T16:30:01.180Z,2.30
2023-04-18T16:33:03.952Z,2.67
2023-04-18T16:39:09.198Z,3.40
2023-04-18T16:42:13.351Z,2.63
2023-04-18T16:45:17.346Z,2.38
2023-04-18T16:48:19.608Z,2.63
2023-04-18T16:51:22.038Z,4.03
2023-04-18T16:54:24.283Z,3.65
2023-04-18T16:57:26.504Z,2.30
2023-04-18T17:00:29.371Z,2.45
2023-04-18T17:03:31.808Z,2.05
2023-04-18T17:06:34.376Z,2.15
2023-04-18T17:09:36.735Z,2.40
2023-04-18T17:12:39.011Z,3.90
2023-04-18T17:15:41.378Z,3.33
2023-04-18T17:18:43.698Z,2.70
2023-04-18T17:21:46.384Z,2.80
2023-04-18T17:24:48.676Z,4.50
2023-04-18T17:27:51.107Z,2.53
2023-04-18T17:30:53.420Z,3.20
2023-04-18T17:33:56.329Z,2.97
2023-04-18T17:36:58.663Z,4.75
2023-04-18T17:40:03.625Z,2.75
2023-04-18T17:43:06.175Z,2.55
2023-04-18T17:46:08.459Z,2.05
2023-04-18T17:49:11.408Z,2.72
2023-04-18T17:52:13.766Z,2.40
2023-04-18T17:55:16.060Z,12.00
2023-04-18T17:58:19.566Z,8.57
2023-04-18T18:01:22.449Z,3.08
2023-04-18T18:04:26.461Z,2.90
2023-04-18T18:07:31.009Z,2.65
2023-04-18T18:10:33.943Z,3.17
2023-04-18T18:13:36.733Z,3.30
2023-04-18T18:19:41.523Z,3.70
2023-04-18T18:22:44.184Z,3.40
2023-04-18T18:25:46.524Z,3.92
2023-04-18T18:28:48.816Z,3.65
2023-04-18T18:31:51.177Z,3.42
2023-04-18T18:34:53.616Z,4.25
2023-04-18T18:37:56.132Z,3.72
2023-04-18T18:40:59.348Z,3.47
2023-04-18T18:44:02.829Z,4.30
2023-04-18T18:47:05.865Z,3.53
2023-04-18T18:50:08.619Z,3.67
2023-04-18T18:53:10.947Z,3.53
2023-04-18T18:56:13.281Z,3.53
2023-04-18T18:59:16.007Z,2.88
2023-04-18T19:02:18.661Z,3.05
2023-04-18T19:05:21.157Z,3.00
2023-04-18T19:08:23.423Z,3.17
2023-04-18T19:11:26.756Z,3.00
2023-04-18T19:14:28.977Z,3.85
2023-04-18T19:17:31.472Z,3.38
2023-04-18T19:20:33.795Z,3.25
2023-04-18T19:23:38.900Z,3.53
2023-04-18T19:26:45.093Z,3.45
2023-04-18T19:29:47.379Z,3.63
2023-04-18T19:32:49.694Z,3.03
2023-04-18T19:35:52.185Z,3.22
2023-04-18T19:38:55.549Z,4.22
2023-04-18T19:41:57.789Z,6.30
2023-04-18T19:45:00.341Z,3.15
2023-04-18T19:48:02.666Z,3.78
2023-04-18T19:51:05.035Z,3.28
2023-04-18T19:54:07.473Z,3.30
2023-04-18T19:57:09.831Z,3.70
2023-04-18T20:00:13.303Z,2.97
2023-04-18T20:03:17.308Z,5.43
2023-04-18T20:06:20.237Z,3.63
2023-04-18T20:12:27.164Z,3.15
2023-04-18T20:15:30.768Z,2.90
2023-04-18T20:18:35.809Z,2.65
2023-04-18T20:21:38.062Z,3.50
2023-04-18T20:24:40.382Z,2.80
2023-04-18T20:27:42.596Z,2.78
2023-04-18T20:30:47.589Z,3.00
2023-04-18T20:33:52.869Z,2.97
2023-04-18T20:36:55.549Z,2.83
2023-04-18T20:39:58.787Z,3.03
2023-04-18T20:43:03.042Z,2.70
2023-04-18T20:46:06.931Z,2.97
2023-04-18T20:49:09.819Z,2.92
2023-04-18T20:55:18.259Z,2.83
2023-04-18T20:58:20.751Z,2.90
2023-04-18T21:01:23.332Z,2.40
2023-04-18T21:04:25.893Z,2.60
2023-04-18T21:07:29.671Z,2.65
2023-04-18T21:10:32.021Z,2.67
2023-04-18T21:13:34.763Z,2.55
2023-04-18T21:16:39.399Z,3.33
2023-04-18T21:19:41.822Z,2.75
2023-04-18T21:22:44.115Z,2.53
2023-04-18T21:25:46.343Z,2.83
2023-04-18T21:28:56.481Z,2.83
2023-04-18T21:31:58.874Z,2.95
2023-04-18T21:35:01.573Z,2.50
2023-04-18T21:38:03.807Z,3.28
2023-04-18T21:41:06.067Z,3.42
2023-04-18T21:44:08.327Z,3.60
2023-04-18T21:47:10.674Z,3.70
2023-04-18T21:50:13.157Z,3.80
2023-04-18T21:53:15.424Z,3.55
2023-04-18T21:56:17.679Z,3.40
2023-04-18T21:59:20.003Z,3.38
2023-04-18T22:02:22.383Z,3.28
2023-04-18T22:05:26.325Z,3.60
2023-04-18T22:08:29.574Z,3.42
2023-04-18T22:11:32.271Z,3.17
2023-04-18T22:14:34.591Z,3.40
2023-04-18T22:17:38.014Z,3.17
2023-04-18T22:20:44.101Z,3.15
2023-04-18T22:23:46.336Z,3.55
2023-04-18T22:26:48.783Z,3.08
2023-04-18T22:29:51.086Z,3.28
2023-04-18T22:32:53.327Z,3.75
2023-04-18T22:35:55.778Z,3.50
2023-04-18T22:38:58.077Z,3.22
2023-04-18T22:42:00.389Z,3.85
2023-04-18T22:45:02.734Z,3.30
2023-04-18T22:48:05.427Z,3.15
2023-04-18T22:51:07.658Z,3.47
2023-04-18T22:54:09.920Z,3.25
2023-04-18T22:57:12.169Z,3.08
2023-04-18T23:00:14.777Z,3.03
2023-04-18T23:03:17.137Z,3.20
2023-04-18T23:06:19.533Z,3.22
2023-04-18T23:09:21.995Z,3.00
2023-04-18T23:12:24.525Z,2.90
2023-04-18T23:15:27.034Z,2.80
2023-04-18T23:18:30.049Z,3.08
2023-04-18T23:21:32.468Z,3.25
2023-04-18T23:24:34.702Z,3.17
2023-04-18T23:27:36.928Z,3.03
2023-04-18T23:30:39.610Z,3.05
2023-04-18T23:33:41.843Z,3.10
2023-04-18T23:36:44.124Z,2.83
2023-04-18T23:39:46.383Z,3.28
2023-04-18T23:42:48.646Z,3.22
2023-04-18T23:45:50.973Z,2.40
2023-04-18T23:48:53.213Z,3.10
2023-04-18T23:51:55.458Z,3.10
2023-04-18T23:55:01.455Z,2.80
2023-04-18T23:58:03.728Z,3.25
